createdAt,value
2016-08-31T00:00:10.966Z,0
2016-08-31T00:01:10.944Z,0
2016-08-31T00:02:11.487Z,0
2016-08-31T00:03:12.138Z,0
2016-08-31T00:04:10.875Z,0
2016-08-31T00:05:11.542Z,0
2016-08-31T00:06:10.833Z,0
2016-08-31T00:07:10.813Z,0
2016-08-31T00:08:10.787Z,0
2016-08-31T00:09:10.766Z,0
2016-08-31T00:10:11.431Z,0
2016-08-31T00:11:10.720Z,0
2016-08-31T00:12:10.694Z,0
2016-08-31T00:13:10.669Z,0
2016-08-31T00:14:10.653Z,0
2016-08-31T00:15:10.631Z,0
2016-08-31T00:16:10.618Z,0
2016-08-31T00:17:10.585Z,0
2016-08-31T00:18:10.557Z,0
2016-08-31T00:19:10.540Z,0
2016-08-31T00:20:10.519Z,0
2016-08-31T00:21:10.491Z,0
2016-08-31T00:22:10.473Z,0
2016-08-31T00:23:10.449Z,0
2016-08-31T00:24:10.426Z,0
2016-08-31T00:25:10.664Z,0
2016-08-31T00:26:10.378Z,0
2016-08-31T00:27:10.358Z,0
2016-08-31T00:28:10.336Z,0
2016-08-31T00:29:10.320Z,0
2016-08-31T00:30:13.414Z,0
2016-08-31T00:31:10.264Z,0
2016-08-31T00:32:10.247Z,0
2016-08-31T00:33:10.218Z,0
2016-08-31T00:34:10.202Z,0
2016-08-31T00:35:10.180Z,0
2016-08-31T00:36:10.157Z,0
2016-08-31T00:37:10.139Z,0
2016-08-31T00:38:10.111Z,0
2016-08-31T00:39:10.085Z,0
2016-08-31T00:40:10.067Z,0
2016-08-31T00:41:10.041Z,0
2016-08-31T00:42:10.027Z,0
2016-08-31T00:43:09.996Z,0
2016-08-31T00:44:09.976Z,0
2016-08-31T00:45:10.035Z,0
2016-08-31T00:46:09.925Z,0
2016-08-31T00:47:09.900Z,0
2016-08-31T00:48:09.882Z,0
2016-08-31T00:49:09.861Z,0
2016-08-31T00:50:10.360Z,0
2016-08-31T00:51:10.509Z,0
2016-08-31T00:52:09.792Z,0
2016-08-31T00:53:09.791Z,0
2016-08-31T00:54:09.744Z,0
2016-08-31T00:55:09.756Z,0
2016-08-31T00:56:09.702Z,0
2016-08-31T00:57:09.677Z,0
2016-08-31T00:58:09.653Z,0
2016-08-31T00:59:09.630Z,0
2016-08-31T01:00:09.605Z,0
2016-08-31T01:01:09.587Z,0
2016-08-31T01:02:09.565Z,0
2016-08-31T01:03:09.542Z,0
2016-08-31T01:04:09.568Z,0
2016-08-31T01:05:09.501Z,0
2016-08-31T01:06:09.471Z,0
2016-08-31T01:07:09.446Z,0
2016-08-31T01:08:09.418Z,0
2016-08-31T01:09:09.401Z,0
2016-08-31T01:10:09.378Z,0
2016-08-31T01:11:09.351Z,0
2016-08-31T01:12:09.347Z,0
2016-08-31T01:13:09.314Z,0
2016-08-31T01:14:09.286Z,0
2016-08-31T01:15:09.259Z,0
2016-08-31T01:16:09.232Z,0
2016-08-31T01:17:09.216Z,0
2016-08-31T01:18:09.205Z,0
2016-08-31T01:19:09.170Z,0
2016-08-31T01:20:09.200Z,0
2016-08-31T01:21:09.119Z,0
2016-08-31T01:22:09.119Z,0
2016-08-31T01:23:09.077Z,0
2016-08-31T01:24:09.051Z,0
2016-08-31T01:25:09.033Z,0
2016-08-31T01:26:09.010Z,0
2016-08-31T01:27:08.985Z,0
2016-08-31T01:28:08.965Z,0
2016-08-31T01:29:08.934Z,0
2016-08-31T01:30:08.917Z,0
2016-08-31T01:31:08.893Z,0
2016-08-31T01:32:08.870Z,0
2016-08-31T01:33:08.854Z,0
2016-08-31T01:34:08.819Z,0
2016-08-31T01:35:08.814Z,0
2016-08-31T01:36:08.775Z,0
2016-08-31T01:37:08.763Z,0
2016-08-31T01:38:08.730Z,0
2016-08-31T01:39:08.707Z,0
2016-08-31T01:40:08.688Z,0
2016-08-31T01:41:08.657Z,0
2016-08-31T01:42:08.631Z,0
2016-08-31T01:43:08.612Z,0
2016-08-31T01:44:08.588Z,0
2016-08-31T01:45:08.566Z,0
2016-08-31T01:46:08.544Z,0
2016-08-31T01:47:08.515Z,0
2016-08-31T01:48:08.504Z,0
2016-08-31T01:49:08.482Z,0
2016-08-31T01:50:09.137Z,0
2016-08-31T01:51:08.436Z,0
2016-08-31T01:52:08.401Z,0
2016-08-31T01:53:08.378Z,0
2016-08-31T01:54:08.352Z,0
2016-08-31T01:55:08.326Z,0
2016-08-31T01:56:08.307Z,0
2016-08-31T01:57:08.282Z,0
2016-08-31T01:58:08.260Z,0
2016-08-31T01:59:08.240Z,0
2016-08-31T02:00:08.208Z,0
2016-08-31T02:01:08.188Z,0
2016-08-31T02:02:08.173Z,0
2016-08-31T02:03:08.136Z,0
2016-08-31T02:04:08.117Z,0
2016-08-31T02:05:08.095Z,0
2016-08-31T02:06:08.083Z,0
2016-08-31T02:07:08.048Z,0
2016-08-31T02:08:08.026Z,0
2016-08-31T02:09:08.037Z,0
2016-08-31T02:10:09.172Z,0
2016-08-31T02:11:07.949Z,0
2016-08-31T02:12:07.932Z,0
2016-08-31T02:13:07.906Z,0
2016-08-31T02:14:07.882Z,0
2016-08-31T02:15:07.859Z,0
2016-08-31T02:16:07.827Z,0
2016-08-31T02:17:07.809Z,0
2016-08-31T02:18:07.789Z,0
2016-08-31T02:19:07.758Z,0
2016-08-31T02:20:07.741Z,0
2016-08-31T02:21:07.721Z,0
2016-08-31T02:22:07.691Z,0
2016-08-31T02:23:07.673Z,0
2016-08-31T02:24:07.638Z,0
2016-08-31T02:25:07.734Z,0
2016-08-31T02:26:07.595Z,0
2016-08-31T02:27:07.566Z,0
2016-08-31T02:28:07.549Z,0
2016-08-31T02:29:07.527Z,0
2016-08-31T02:30:07.504Z,0
2016-08-31T02:31:07.473Z,0
2016-08-31T02:32:07.447Z,0
2016-08-31T02:33:07.429Z,0
2016-08-31T02:34:07.410Z,0
2016-08-31T02:35:07.382Z,0
2016-08-31T02:36:07.358Z,0
2016-08-31T02:37:07.328Z,0
2016-08-31T02:38:07.310Z,0
2016-08-31T02:39:07.283Z,0
2016-08-31T02:40:07.257Z,0
2016-08-31T02:41:07.238Z,0
2016-08-31T02:42:07.225Z,0
2016-08-31T02:43:07.193Z,0
2016-08-31T02:44:07.173Z,0
2016-08-31T02:45:07.144Z,0
2016-08-31T02:46:07.126Z,0
2016-08-31T02:47:07.106Z,0
2016-08-31T02:48:07.065Z,0
2016-08-31T02:49:07.046Z,0
2016-08-31T02:50:07.023Z,0
2016-08-31T02:51:07.012Z,0
2016-08-31T02:52:06.974Z,0
2016-08-31T02:53:06.952Z,0
2016-08-31T02:54:06.926Z,0
2016-08-31T02:55:06.900Z,0
2016-08-31T02:56:06.873Z,0
2016-08-31T02:57:06.855Z,0
2016-08-31T02:58:06.829Z,0
2016-08-31T02:59:06.807Z,0
2016-08-31T03:00:06.791Z,0
2016-08-31T03:01:06.754Z,0
2016-08-31T03:02:06.735Z,0
2016-08-31T03:03:06.711Z,0
2016-08-31T03:04:06.680Z,0
2016-08-31T03:05:06.680Z,0
2016-08-31T03:06:06.636Z,0
2016-08-31T03:07:06.613Z,0
2016-08-31T03:08:07.281Z,0
2016-08-31T03:09:06.568Z,0
2016-08-31T03:10:06.555Z,0
2016-08-31T03:11:07.209Z,0
2016-08-31T03:12:06.497Z,0
2016-08-31T03:13:06.471Z,0
2016-08-31T03:14:07.145Z,0
2016-08-31T03:15:07.109Z,0
2016-08-31T03:16:06.404Z,0
2016-08-31T03:17:06.377Z,0
2016-08-31T03:18:06.349Z,0
2016-08-31T03:19:06.329Z,0
2016-08-31T03:20:06.299Z,0
2016-08-31T03:21:06.274Z,0
2016-08-31T03:22:06.252Z,0
2016-08-31T03:23:06.229Z,0
2016-08-31T03:24:06.200Z,0
2016-08-31T03:25:06.445Z,0
2016-08-31T03:26:06.154Z,0
2016-08-31T03:27:06.127Z,0
2016-08-31T03:28:06.122Z,0
2016-08-31T03:29:06.082Z,0
2016-08-31T03:30:06.062Z,0
2016-08-31T03:31:06.034Z,0
2016-08-31T03:32:06.006Z,0
2016-08-31T03:33:05.986Z,0
2016-08-31T03:34:05.965Z,0
2016-08-31T03:35:05.998Z,0
2016-08-31T03:36:05.913Z,0
2016-08-31T03:37:05.998Z,0
2016-08-31T03:38:05.863Z,0
2016-08-31T03:39:05.850Z,0
2016-08-31T03:40:05.818Z,0
2016-08-31T03:41:05.784Z,0
2016-08-31T03:42:05.766Z,0
2016-08-31T03:43:05.741Z,0
2016-08-31T03:44:05.715Z,0
2016-08-31T03:45:05.700Z,0
2016-08-31T03:46:05.676Z,0
2016-08-31T03:47:05.645Z,0
2016-08-31T03:48:05.620Z,0
2016-08-31T03:49:05.590Z,0
2016-08-31T03:50:05.577Z,0
2016-08-31T03:51:05.546Z,0
2016-08-31T03:52:05.518Z,0
2016-08-31T03:53:05.499Z,0
2016-08-31T03:54:05.475Z,0
2016-08-31T03:55:05.445Z,0
2016-08-31T03:56:05.425Z,0
2016-08-31T03:57:05.399Z,0
2016-08-31T03:58:05.372Z,0
2016-08-31T03:59:05.352Z,0
2016-08-31T04:00:05.328Z,0
2016-08-31T04:01:05.299Z,0
2016-08-31T04:02:05.280Z,0
2016-08-31T04:03:05.254Z,0
2016-08-31T04:04:05.225Z,0
2016-08-31T04:05:05.235Z,0
2016-08-31T04:06:05.186Z,0
2016-08-31T04:07:05.156Z,0
2016-08-31T04:08:05.134Z,0
2016-08-31T04:09:05.110Z,0
2016-08-31T04:10:05.091Z,0
2016-08-31T04:11:05.774Z,0
2016-08-31T04:12:05.033Z,0
2016-08-31T04:13:05.013Z,0
2016-08-31T04:14:05.019Z,0
2016-08-31T04:15:04.958Z,0
2016-08-31T04:16:04.939Z,0
2016-08-31T04:17:04.914Z,0
2016-08-31T04:18:04.974Z,0
2016-08-31T04:19:04.884Z,0
2016-08-31T04:20:04.839Z,0
2016-08-31T04:21:04.811Z,0
2016-08-31T04:22:04.793Z,0
2016-08-31T04:23:04.767Z,0
2016-08-31T04:24:04.745Z,0
2016-08-31T04:25:04.720Z,0
2016-08-31T04:26:04.765Z,0
2016-08-31T04:27:04.667Z,5
2016-08-31T04:28:04.646Z,5
2016-08-31T04:29:04.624Z,5
2016-08-31T04:30:04.597Z,5
2016-08-31T04:31:05.272Z,5
2016-08-31T04:32:04.555Z,5
2016-08-31T04:33:04.524Z,10
2016-08-31T04:34:04.602Z,10
2016-08-31T04:35:05.700Z,10
2016-08-31T04:36:04.450Z,10
2016-08-31T04:37:04.428Z,15
2016-08-31T04:38:04.402Z,15
2016-08-31T04:39:04.378Z,15
2016-08-31T04:40:04.356Z,20
2016-08-31T04:41:04.344Z,20
2016-08-31T04:42:04.306Z,20
2016-08-31T04:43:04.282Z,25
2016-08-31T04:44:04.259Z,25
2016-08-31T04:45:04.234Z,30
2016-08-31T04:46:04.218Z,30
2016-08-31T04:47:04.873Z,35
2016-08-31T04:48:04.173Z,35
2016-08-31T04:49:04.137Z,40
2016-08-31T04:50:04.115Z,40
2016-08-31T04:51:04.090Z,45
2016-08-31T04:52:04.065Z,45
2016-08-31T04:53:04.035Z,50
2016-08-31T04:54:04.014Z,50
2016-08-31T04:55:03.990Z,55
2016-08-31T04:56:03.968Z,60
2016-08-31T04:57:03.942Z,60
2016-08-31T04:58:03.918Z,65
2016-08-31T04:59:03.890Z,65
2016-08-31T05:00:03.871Z,70
2016-08-31T05:01:03.846Z,75
2016-08-31T05:02:03.837Z,75
2016-08-31T05:03:03.810Z,80
2016-08-31T05:04:03.778Z,80
2016-08-31T05:05:03.757Z,85
2016-08-31T05:06:03.726Z,90
2016-08-31T05:07:03.699Z,90
2016-08-31T05:08:03.676Z,95
2016-08-31T05:09:03.653Z,95
2016-08-31T05:10:04.241Z,100
2016-08-31T05:11:03.608Z,105
2016-08-31T05:12:03.580Z,105
2016-08-31T05:13:03.557Z,110
2016-08-31T05:14:03.531Z,110
2016-08-31T05:15:03.508Z,115
2016-08-31T05:16:03.479Z,120
2016-08-31T05:17:03.461Z,120
2016-08-31T05:18:03.437Z,125
2016-08-31T05:19:03.411Z,125
2016-08-31T05:20:03.394Z,130
2016-08-31T05:21:03.363Z,135
2016-08-31T05:22:03.335Z,135
2016-08-31T05:23:03.335Z,140
2016-08-31T05:24:03.289Z,140
2016-08-31T05:25:03.360Z,145
2016-08-31T05:26:03.242Z,145
2016-08-31T05:27:03.221Z,150
2016-08-31T05:28:03.197Z,150
2016-08-31T05:29:03.173Z,155
2016-08-31T05:30:03.156Z,160
2016-08-31T05:31:03.121Z,160
2016-08-31T05:32:03.103Z,165
2016-08-31T05:33:03.078Z,165
2016-08-31T05:34:03.054Z,170
2016-08-31T05:35:03.034Z,170
2016-08-31T05:36:03.005Z,175
2016-08-31T05:37:02.994Z,175
2016-08-31T05:38:02.958Z,180
2016-08-31T05:39:02.932Z,180
2016-08-31T05:40:03.040Z,185
2016-08-31T05:41:02.887Z,185
2016-08-31T05:42:02.861Z,185
2016-08-31T05:43:02.841Z,190
2016-08-31T05:44:02.820Z,190
2016-08-31T05:45:02.794Z,195
2016-08-31T05:46:03.567Z,195
2016-08-31T05:47:02.749Z,200
2016-08-31T05:48:02.718Z,200
2016-08-31T05:49:02.701Z,200
2016-08-31T05:50:02.678Z,205
2016-08-31T05:51:02.667Z,205
2016-08-31T05:52:02.630Z,210
2016-08-31T05:53:03.303Z,210
2016-08-31T05:54:02.582Z,210
2016-08-31T05:55:03.278Z,215
2016-08-31T05:56:02.536Z,215
2016-08-31T05:57:02.513Z,220
2016-08-31T05:58:02.505Z,220
2016-08-31T05:59:02.473Z,225
2016-08-31T06:00:02.502Z,225
2016-08-31T06:01:02.642Z,230
2016-08-31T06:02:02.586Z,230
2016-08-31T06:03:02.371Z,230
2016-08-31T06:04:02.349Z,235
2016-08-31T06:05:02.329Z,235
2016-08-31T06:06:02.325Z,240
2016-08-31T06:07:02.278Z,240
2016-08-31T06:08:02.955Z,240
2016-08-31T06:09:02.229Z,240
2016-08-31T06:10:02.214Z,245
2016-08-31T06:11:02.187Z,245
2016-08-31T06:12:02.162Z,245
2016-08-31T06:13:02.139Z,250
2016-08-31T06:14:02.123Z,250
2016-08-31T06:15:02.099Z,250
2016-08-31T06:16:02.068Z,250
2016-08-31T06:17:02.053Z,250
2016-08-31T06:18:02.027Z,250
2016-08-31T06:19:02.742Z,250
2016-08-31T06:20:01.986Z,255
2016-08-31T06:21:01.958Z,255
2016-08-31T06:22:02.634Z,255
2016-08-31T06:23:01.917Z,260
2016-08-31T06:24:01.923Z,260
2016-08-31T06:25:01.864Z,260
2016-08-31T06:26:01.848Z,265
2016-08-31T06:27:01.832Z,265
2016-08-31T06:28:01.808Z,265
2016-08-31T06:29:01.788Z,270
2016-08-31T06:30:01.759Z,320
2016-08-31T06:31:01.736Z,555
2016-08-31T06:32:01.723Z,735
2016-08-31T06:33:01.695Z,610
2016-08-31T06:34:01.668Z,415
2016-08-31T06:35:01.646Z,280
2016-08-31T06:36:02.316Z,275
2016-08-31T06:37:01.601Z,275
2016-08-31T06:38:01.579Z,275
2016-08-31T06:39:01.560Z,280
2016-08-31T06:40:01.539Z,280
2016-08-31T06:41:02.365Z,280
2016-08-31T06:42:01.490Z,285
2016-08-31T06:43:01.471Z,285
2016-08-31T06:44:01.449Z,285
2016-08-31T06:45:01.429Z,285
2016-08-31T06:46:01.415Z,290
2016-08-31T06:47:01.403Z,290
2016-08-31T06:48:01.357Z,295
2016-08-31T06:49:01.342Z,300
2016-08-31T06:50:01.319Z,295
2016-08-31T06:51:01.292Z,300
2016-08-31T06:52:01.289Z,300
2016-08-31T06:53:01.257Z,300
2016-08-31T06:54:01.230Z,300
2016-08-31T06:55:01.211Z,305
2016-08-31T06:56:01.191Z,305
2016-08-31T06:57:01.170Z,305
2016-08-31T06:58:01.149Z,305
2016-08-31T06:59:01.119Z,305
2016-08-31T07:00:01.104Z,315
2016-08-31T07:01:01.785Z,310
2016-08-31T07:02:01.060Z,310
2016-08-31T07:03:01.432Z,310
2016-08-31T07:04:01.018Z,315
2016-08-31T07:05:00.995Z,315
2016-08-31T07:06:00.980Z,320
2016-08-31T07:07:00.956Z,460
2016-08-31T07:08:00.932Z,785
2016-08-31T07:09:01.612Z,1065
2016-08-31T07:10:02.840Z,1120
2016-08-31T07:11:00.874Z,1130
2016-08-31T07:12:00.852Z,1140
2016-08-31T07:13:00.833Z,1165
2016-08-31T07:14:00.808Z,1175
2016-08-31T07:15:00.793Z,1150
2016-08-31T07:16:01.668Z,990
2016-08-31T07:17:00.753Z,755
2016-08-31T07:18:00.764Z,880
2016-08-31T07:19:00.715Z,1125
2016-08-31T07:20:00.700Z,1120
2016-08-31T07:21:00.683Z,1145
2016-08-31T07:22:00.665Z,1170
2016-08-31T07:23:00.647Z,1165
2016-08-31T07:24:02.137Z,1015
2016-08-31T07:25:00.616Z,565
2016-08-31T07:26:00.596Z,395
2016-08-31T07:27:00.594Z,365
2016-08-31T07:28:00.560Z,375
2016-08-31T07:29:00.578Z,390
2016-08-31T07:30:00.787Z,495
2016-08-31T07:31:00.520Z,855
2016-08-31T07:32:00.511Z,1190
2016-08-31T07:33:00.484Z,975
2016-08-31T07:34:00.468Z,850
2016-08-31T07:35:00.448Z,1100
2016-08-31T07:36:01.246Z,1005
2016-08-31T07:37:00.411Z,815
2016-08-31T07:38:00.401Z,700
2016-08-31T07:39:00.412Z,550
2016-08-31T07:40:00.363Z,440
2016-08-31T07:41:00.356Z,400
2016-08-31T07:42:00.338Z,385
2016-08-31T07:43:00.344Z,380
2016-08-31T07:44:00.302Z,385
2016-08-31T07:45:00.298Z,380
2016-08-31T07:46:00.266Z,380
2016-08-31T07:47:00.255Z,380
2016-08-31T07:48:00.252Z,385
2016-08-31T07:49:00.220Z,385
2016-08-31T07:50:00.206Z,385
2016-08-31T07:51:00.192Z,385
2016-08-31T07:52:00.178Z,390
2016-08-31T07:53:00.158Z,390
2016-08-31T07:54:00.137Z,390
2016-08-31T07:55:00.139Z,390
2016-08-31T07:56:00.106Z,390
2016-08-31T07:57:00.090Z,390
2016-08-31T07:58:00.087Z,390
2016-08-31T07:59:00.070Z,390
2016-08-31T08:00:00.045Z,390
2016-08-31T08:01:00.027Z,390
2016-08-31T08:02:00.009Z,390
2016-08-31T08:03:00.749Z,390
2016-08-31T08:03:59.978Z,390
2016-08-31T08:04:59.957Z,390
2016-08-31T08:06:00.692Z,390
2016-08-31T08:06:59.925Z,395
2016-08-31T08:07:59.908Z,395
2016-08-31T08:08:59.912Z,395
2016-08-31T08:09:59.881Z,395
2016-08-31T08:10:59.850Z,395
2016-08-31T08:11:59.831Z,395
2016-08-31T08:12:59.824Z,395
2016-08-31T08:13:59.799Z,395
2016-08-31T08:14:59.789Z,395
2016-08-31T08:15:59.766Z,395
2016-08-31T08:16:59.750Z,400
2016-08-31T08:17:59.735Z,400
2016-08-31T08:18:59.721Z,400
2016-08-31T08:19:59.700Z,400
2016-08-31T08:20:59.681Z,400
2016-08-31T08:22:00.431Z,405
2016-08-31T08:22:59.644Z,405
2016-08-31T08:24:01.549Z,405
2016-08-31T08:24:59.611Z,405
2016-08-31T08:26:00.640Z,410
2016-08-31T08:26:59.573Z,410
2016-08-31T08:28:00.258Z,410
2016-08-31T08:28:59.545Z,410
2016-08-31T08:29:59.524Z,410
2016-08-31T08:30:59.509Z,410
2016-08-31T08:31:59.493Z,420
2016-08-31T08:32:59.475Z,415
2016-08-31T08:33:59.477Z,415
2016-08-31T08:34:59.450Z,415
2016-08-31T08:35:59.435Z,415
2016-08-31T08:36:59.414Z,415
2016-08-31T08:37:59.393Z,415
2016-08-31T08:38:59.377Z,415
2016-08-31T08:39:59.356Z,420
2016-08-31T08:40:59.343Z,420
2016-08-31T08:41:59.328Z,420
2016-08-31T08:42:59.303Z,420
2016-08-31T08:43:59.464Z,420
2016-08-31T08:44:59.293Z,420
2016-08-31T08:45:59.262Z,420
2016-08-31T08:46:59.243Z,425
2016-08-31T08:47:59.221Z,425
2016-08-31T08:48:59.210Z,425
2016-08-31T08:49:59.195Z,425
2016-08-31T08:50:59.176Z,430
2016-08-31T08:51:59.167Z,430
2016-08-31T08:52:59.140Z,430
2016-08-31T08:53:59.128Z,430
2016-08-31T08:54:59.108Z,430
2016-08-31T08:55:59.095Z,430
2016-08-31T08:56:59.075Z,430
2016-08-31T08:57:59.055Z,435
2016-08-31T08:58:59.761Z,435
2016-08-31T08:59:59.026Z,435
2016-08-31T09:00:59.012Z,435
2016-08-31T09:01:58.994Z,440
2016-08-31T09:02:59.667Z,440
2016-08-31T09:03:58.974Z,440
2016-08-31T09:04:58.947Z,440
2016-08-31T09:05:58.943Z,445
2016-08-31T09:06:58.936Z,445
2016-08-31T09:07:58.914Z,445
2016-08-31T09:08:58.881Z,445
2016-08-31T09:09:58.860Z,445
2016-08-31T09:10:58.851Z,445
2016-08-31T09:11:58.852Z,450
2016-08-31T09:12:58.816Z,450
2016-08-31T09:13:58.805Z,450
2016-08-31T09:14:59.477Z,455
2016-08-31T09:15:58.770Z,455
2016-08-31T09:16:58.755Z,460
2016-08-31T09:17:58.744Z,460
2016-08-31T09:18:58.729Z,465
2016-08-31T09:19:58.729Z,470
2016-08-31T09:20:58.687Z,470
2016-08-31T09:21:58.694Z,470
2016-08-31T09:22:58.659Z,475
2016-08-31T09:23:58.663Z,475
2016-08-31T09:24:58.633Z,475
2016-08-31T09:25:58.615Z,480
2016-08-31T09:26:58.606Z,480
2016-08-31T09:27:58.678Z,485
2016-08-31T09:28:58.567Z,480
2016-08-31T09:29:58.550Z,485
2016-08-31T09:30:58.544Z,485
2016-08-31T09:31:59.225Z,485
2016-08-31T09:32:58.500Z,480
2016-08-31T09:33:58.492Z,480
2016-08-31T09:34:58.508Z,480
2016-08-31T09:35:58.456Z,480
2016-08-31T09:36:58.443Z,480
2016-08-31T09:37:58.420Z,480
2016-08-31T09:38:58.418Z,480
2016-08-31T09:39:58.399Z,480
2016-08-31T09:40:58.386Z,485
2016-08-31T09:41:58.365Z,480
2016-08-31T09:42:58.361Z,480
2016-08-31T09:43:58.336Z,475
2016-08-31T09:44:58.322Z,475
2016-08-31T09:45:58.315Z,475
2016-08-31T09:46:58.290Z,475
2016-08-31T09:47:58.276Z,475
2016-08-31T09:48:58.255Z,475
2016-08-31T09:49:58.239Z,475
2016-08-31T09:50:58.289Z,475
2016-08-31T09:51:58.213Z,475
2016-08-31T09:52:58.889Z,480
2016-08-31T09:53:58.180Z,485
2016-08-31T09:54:58.163Z,485
2016-08-31T09:55:58.153Z,490
2016-08-31T09:56:58.136Z,495
2016-08-31T09:57:58.123Z,495
2016-08-31T09:58:58.109Z,500
2016-08-31T09:59:58.086Z,500
2016-08-31T10:00:58.129Z,505
2016-08-31T10:01:58.056Z,505
2016-08-31T10:02:58.052Z,510
2016-08-31T10:03:58.032Z,515
2016-08-31T10:04:58.017Z,515
2016-08-31T10:05:58.003Z,520
2016-08-31T10:06:57.983Z,525
2016-08-31T10:07:57.988Z,530
2016-08-31T10:08:57.954Z,535
2016-08-31T10:09:57.997Z,540
2016-08-31T10:10:58.640Z,540
2016-08-31T10:11:57.913Z,545
2016-08-31T10:12:57.906Z,550
2016-08-31T10:13:57.891Z,555
2016-08-31T10:14:57.877Z,555
2016-08-31T10:15:57.856Z,560
2016-08-31T10:16:57.841Z,590
2016-08-31T10:17:57.824Z,590
2016-08-31T10:18:57.812Z,580
2016-08-31T10:19:57.803Z,580
2016-08-31T10:20:57.788Z,575
2016-08-31T10:21:57.776Z,575
2016-08-31T10:22:57.749Z,575
2016-08-31T10:23:58.432Z,560
2016-08-31T10:24:57.726Z,550
2016-08-31T10:25:57.707Z,540
2016-08-31T10:26:57.695Z,535
2016-08-31T10:27:57.682Z,525
2016-08-31T10:28:57.665Z,525
2016-08-31T10:29:57.660Z,520
2016-08-31T10:30:57.653Z,520
2016-08-31T10:31:58.315Z,520
2016-08-31T10:32:57.611Z,520
2016-08-31T10:33:57.599Z,520
2016-08-31T10:34:57.584Z,515
2016-08-31T10:35:57.594Z,515
2016-08-31T10:36:57.560Z,520
2016-08-31T10:37:57.539Z,520
2016-08-31T10:38:57.535Z,520
2016-08-31T10:39:57.511Z,520
2016-08-31T10:40:57.503Z,515
2016-08-31T10:41:57.490Z,515
2016-08-31T10:42:57.492Z,515
2016-08-31T10:43:57.462Z,515
2016-08-31T10:44:58.572Z,515
2016-08-31T10:45:57.427Z,515
2016-08-31T10:46:57.427Z,515
2016-08-31T10:47:57.405Z,510
2016-08-31T10:48:57.389Z,510
2016-08-31T10:49:57.399Z,510
2016-08-31T10:50:57.363Z,510
2016-08-31T10:51:58.275Z,515
2016-08-31T10:52:57.337Z,515
2016-08-31T10:53:57.324Z,520
2016-08-31T10:54:57.312Z,520
2016-08-31T10:55:57.292Z,520
2016-08-31T10:56:57.283Z,525
2016-08-31T10:57:57.270Z,525
2016-08-31T10:58:57.261Z,530
2016-08-31T10:59:57.242Z,530
2016-08-31T11:00:57.243Z,530
2016-08-31T11:01:57.218Z,535
2016-08-31T11:02:57.211Z,530
2016-08-31T11:03:57.191Z,525
2016-08-31T11:04:57.168Z,525
2016-08-31T11:05:57.166Z,525
2016-08-31T11:06:57.144Z,525
2016-08-31T11:07:57.129Z,520
2016-08-31T11:08:57.120Z,525
2016-08-31T11:09:57.107Z,520
2016-08-31T11:10:57.785Z,520
2016-08-31T11:11:57.079Z,530
2016-08-31T11:12:57.070Z,525
2016-08-31T11:13:57.056Z,525
2016-08-31T11:14:57.038Z,525
2016-08-31T11:15:57.036Z,520
2016-08-31T11:16:57.015Z,520
2016-08-31T11:17:57.003Z,515
2016-08-31T11:18:56.986Z,515
2016-08-31T11:19:56.971Z,515
2016-08-31T11:20:56.957Z,515
2016-08-31T11:21:56.943Z,515
2016-08-31T11:22:56.942Z,515
2016-08-31T11:23:56.916Z,515
2016-08-31T11:24:56.901Z,515
2016-08-31T11:25:56.885Z,515
2016-08-31T11:26:56.876Z,520
2016-08-31T11:27:56.860Z,520
2016-08-31T11:28:56.910Z,520
2016-08-31T11:29:57.529Z,520
2016-08-31T11:30:57.535Z,525
2016-08-31T11:31:56.963Z,525
2016-08-31T11:32:56.810Z,525
2016-08-31T11:33:56.787Z,525
2016-08-31T11:34:56.764Z,530
2016-08-31T11:35:56.757Z,525
2016-08-31T11:36:56.747Z,530
2016-08-31T11:37:56.729Z,525
2016-08-31T11:38:56.725Z,525
2016-08-31T11:39:56.703Z,525
2016-08-31T11:40:56.700Z,520
2016-08-31T11:41:56.671Z,525
2016-08-31T11:42:56.667Z,530
2016-08-31T11:43:56.650Z,530
2016-08-31T11:44:56.636Z,535
2016-08-31T11:45:56.621Z,545
2016-08-31T11:46:56.612Z,540
2016-08-31T11:47:56.595Z,535
2016-08-31T11:48:56.584Z,525
2016-08-31T11:49:56.571Z,520
2016-08-31T11:50:56.552Z,525
2016-08-31T11:51:56.538Z,520
2016-08-31T11:52:56.528Z,520
2016-08-31T11:53:56.518Z,525
2016-08-31T11:54:56.510Z,530
2016-08-31T11:55:56.496Z,525
2016-08-31T11:56:56.481Z,525
2016-08-31T11:57:56.460Z,520
2016-08-31T11:58:56.461Z,520
2016-08-31T11:59:56.487Z,520
2016-08-31T12:00:56.428Z,520
2016-08-31T12:01:56.409Z,520
2016-08-31T12:02:56.399Z,525
2016-08-31T12:03:56.384Z,525
2016-08-31T12:04:56.369Z,530
2016-08-31T12:05:57.050Z,535
2016-08-31T12:06:56.350Z,535
2016-08-31T12:07:56.328Z,530
2016-08-31T12:08:56.319Z,525
2016-08-31T12:09:56.309Z,520
2016-08-31T12:10:56.298Z,525
2016-08-31T12:11:56.281Z,520
2016-08-31T12:12:56.274Z,520
2016-08-31T12:13:56.265Z,525
2016-08-31T12:14:56.319Z,530
2016-08-31T12:15:56.231Z,535
2016-08-31T12:16:56.217Z,530
2016-08-31T12:17:56.211Z,525
2016-08-31T12:18:56.193Z,525
2016-08-31T12:19:56.183Z,525
2016-08-31T12:20:56.174Z,530
2016-08-31T12:21:56.475Z,530
2016-08-31T12:22:56.138Z,540
2016-08-31T12:23:56.819Z,545
2016-08-31T12:24:56.223Z,555
2016-08-31T12:25:56.103Z,555
2016-08-31T12:26:56.092Z,570
2016-08-31T12:27:56.076Z,570
2016-08-31T12:28:56.071Z,565
2016-08-31T12:29:56.064Z,570
2016-08-31T12:30:56.037Z,575
2016-08-31T12:31:56.731Z,570
2016-08-31T12:32:56.014Z,555
2016-08-31T12:33:55.998Z,540
2016-08-31T12:34:55.999Z,535
2016-08-31T12:35:56.060Z,530
2016-08-31T12:36:56.285Z,540
2016-08-31T12:37:55.953Z,540
2016-08-31T12:38:56.637Z,560
2016-08-31T12:39:55.935Z,590
2016-08-31T12:40:55.924Z,585
2016-08-31T12:41:55.911Z,595
2016-08-31T12:42:56.333Z,590
2016-08-31T12:43:56.342Z,585
2016-08-31T12:44:55.868Z,580
2016-08-31T12:45:55.868Z,580
2016-08-31T12:46:55.881Z,580
2016-08-31T12:47:55.828Z,580
2016-08-31T12:48:55.819Z,560
2016-08-31T12:49:55.813Z,565
2016-08-31T12:50:55.794Z,580
2016-08-31T12:51:55.802Z,585
2016-08-31T12:52:55.768Z,575
2016-08-31T12:53:55.756Z,575
2016-08-31T12:56:18.956Z,620
2016-08-31T12:56:41.032Z,630
2016-08-31T12:57:28.099Z,635
2016-08-31T12:58:28.187Z,610
2016-08-31T12:59:27.475Z,585
2016-08-31T13:00:27.471Z,570
2016-08-31T13:01:27.468Z,565
2016-08-31T13:02:28.162Z,560
2016-08-31T13:03:27.428Z,560
2016-08-31T13:04:27.418Z,560
2016-08-31T13:05:27.404Z,555
2016-08-31T13:06:27.417Z,550
2016-08-31T13:07:28.077Z,550
2016-08-31T13:08:27.369Z,555
2016-08-31T13:09:27.363Z,555
2016-08-31T13:10:27.346Z,550
2016-08-31T13:11:28.545Z,560
2016-08-31T13:12:27.318Z,565
2016-08-31T13:13:27.310Z,570
2016-08-31T13:14:27.297Z,580
2016-08-31T13:15:27.289Z,590
2016-08-31T13:16:27.965Z,600
2016-08-31T13:17:27.266Z,600
2016-08-31T13:18:27.243Z,595
2016-08-31T13:19:27.236Z,590
2016-08-31T13:20:27.245Z,590
2016-08-31T13:21:27.213Z,595
2016-08-31T13:22:27.209Z,600
2016-08-31T13:23:27.207Z,605
2016-08-31T13:24:27.176Z,605
2016-08-31T13:25:30.159Z,605
2016-08-31T13:26:27.155Z,600
2016-08-31T13:27:27.137Z,620
2016-08-31T13:28:27.123Z,610
2016-08-31T13:29:27.118Z,645
2016-08-31T13:30:27.103Z,685
2016-08-31T13:31:27.796Z,675
2016-08-31T13:32:27.082Z,710
2016-08-31T13:33:27.068Z,720
2016-08-31T13:34:27.053Z,705
2016-08-31T13:35:27.132Z,705
2016-08-31T13:36:27.037Z,725
2016-08-31T13:37:27.021Z,760
2016-08-31T13:38:27.004Z,770
2016-08-31T13:39:27.001Z,790
2016-08-31T13:40:27.007Z,760
2016-08-31T13:41:26.975Z,715
2016-08-31T13:42:26.961Z,685
2016-08-31T13:43:26.945Z,665
2016-08-31T13:44:26.944Z,650
2016-08-31T13:45:27.465Z,645
2016-08-31T13:46:26.913Z,580
2016-08-31T13:47:26.912Z,625
2016-08-31T13:48:26.891Z,655
2016-08-31T13:49:27.011Z,660
2016-08-31T13:50:27.161Z,660
2016-08-31T13:51:26.859Z,645
2016-08-31T13:52:26.846Z,640
2016-08-31T13:53:26.829Z,625
2016-08-31T13:54:26.824Z,620
2016-08-31T13:55:27.441Z,615
2016-08-31T13:56:26.810Z,585
2016-08-31T13:57:26.808Z,630
2016-08-31T13:58:26.770Z,655
2016-08-31T13:59:26.775Z,685
2016-08-31T14:00:27.243Z,705
2016-08-31T14:01:26.737Z,725
2016-08-31T14:02:26.728Z,715
2016-08-31T14:03:26.717Z,715
2016-08-31T14:04:26.713Z,705
2016-08-31T14:05:26.690Z,695